sensor_id;sensor_type;location;lat;lon;timestamp;pressure;altitude;pressure_sealevel;temperature;humidity
1926;BME280;964;42.606;23.588;2022-09-03T00:01:36;94450.56;;;32.15;39.15
1926;BME280;964;42.606;23.588;2022-09-03T00:04:09;94436.91;;;32.26;38.91
1926;BME280;964;42.606;23.588;2022-09-03T00:06:41;94445.00;;;31.62;40.08
1926;BME280;964;42.606;23.588;2022-09-03T00:09:14;94450.19;;;31.54;40.31
1926;BME280;964;42.606;23.588;2022-09-03T00:11:49;94449.97;;;31.57;40.47
1926;BME280;964;42.606;23.588;2022-09-03T00:14:20;94456.06;;;31.73;40.01
1926;BME280;964;42.606;23.588;2022-09-03T00:16:50;94457.34;;;31.83;39.50
1926;BME280;964;42.606;23.588;2022-09-03T00:19:21;94454.03;;;31.42;40.75
1926;BME280;964;42.606;23.588;2022-09-03T00:21:52;94463.09;;;30.96;41.02
1926;BME280;964;42.606;23.588;2022-09-03T00:24:27;94461.47;;;32.04;39.34
1926;BME280;964;42.606;23.588;2022-09-03T00:27:00;94465.03;;;31.16;40.59
1926;BME280;964;42.606;23.588;2022-09-03T00:29:32;94466.63;;;31.28;40.28
1926;BME280;964;42.606;23.588;2022-09-03T00:32:05;94465.50;;;30.89;41.33
1926;BME280;964;42.606;23.588;2022-09-03T00:34:37;94467.81;;;30.96;41.24
1926;BME280;964;42.606;23.588;2022-09-03T00:37:07;94470.59;;;31.27;40.82
1926;BME280;964;42.606;23.588;2022-09-03T00:39:36;94461.97;;;31.66;40.07
1926;BME280;964;42.606;23.588;2022-09-03T00:42:23;94464.06;;;31.82;39.62
1926;BME280;964;42.606;23.588;2022-09-03T00:45:11;94457.00;;;32.06;39.09
1926;BME280;964;42.606;23.588;2022-09-03T00:47:51;94468.38;;;32.36;38.53
1926;BME280;964;42.606;23.588;2022-09-03T00:50:30;94464.75;;;32.08;39.47
1926;BME280;964;42.606;23.588;2022-09-03T00:53:03;94465.09;;;32.32;38.60
1926;BME280;964;42.606;23.588;2022-09-03T00:55:46;94450.59;;;32.91;37.97
1926;BME280;964;42.606;23.588;2022-09-03T00:58:32;94455.16;;;33.16;37.48
1926;BME280;964;42.606;23.588;2022-09-03T01:01:06;94465.06;;;32.75;38.10
1926;BME280;964;42.606;23.588;2022-09-03T01:03:42;94457.34;;;33.01;37.97
1926;BME280;964;42.606;23.588;2022-09-03T01:06:17;94460.28;;;32.70;38.43
1926;BME280;964;42.606;23.588;2022-09-03T01:09:00;94456.72;;;32.58;38.54
1926;BME280;964;42.606;23.588;2022-09-03T01:11:38;94459.25;;;32.62;38.33
1926;BME280;964;42.606;23.588;2022-09-03T01:14:19;94453.00;;;32.55;38.55
1926;BME280;964;42.606;23.588;2022-09-03T01:16:51;94452.56;;;32.74;38.37
1926;BME280;964;42.606;23.588;2022-09-03T01:25:29;94456.94;;;32.43;38.68
1926;BME280;964;42.606;23.588;2022-09-03T01:28:21;94453.66;;;32.39;38.62
1926;BME280;964;42.606;23.588;2022-09-03T01:30:56;94449.22;;;32.42;38.60
1926;BME280;964;42.606;23.588;2022-09-03T01:33:31;94444.47;;;32.42;38.68
1926;BME280;964;42.606;23.588;2022-09-03T01:36:08;94452.72;;;32.48;38.03
1926;BME280;964;42.606;23.588;2022-09-03T01:38:43;94461.53;;;32.15;38.62
1926;BME280;964;42.606;23.588;2022-09-03T01:41:19;94464.91;;;32.41;38.54
1926;BME280;964;42.606;23.588;2022-09-03T01:44:14;94473.63;;;31.97;38.85
1926;BME280;964;42.606;23.588;2022-09-03T01:46:51;94477.00;;;31.76;39.08
1926;BME280;964;42.606;23.588;2022-09-03T01:49:28;94481.66;;;31.38;40.35
1926;BME280;964;42.606;23.588;2022-09-03T01:52:02;94481.38;;;31.62;39.31
1926;BME280;964;42.606;23.588;2022-09-03T01:54:45;94489.63;;;31.36;40.06
1926;BME280;964;42.606;23.588;2022-09-03T01:57:34;94495.06;;;30.85;40.95
1926;BME280;964;42.606;23.588;2022-09-03T02:00:08;94487.25;;;31.24;39.90
1926;BME280;964;42.606;23.588;2022-09-03T02:02:38;94485.19;;;30.93;40.66
1926;BME280;964;42.606;23.588;2022-09-03T02:05:07;94494.50;;;31.01;40.54
1926;BME280;964;42.606;23.588;2022-09-03T02:07:37;94491.75;;;31.01;40.71
1926;BME280;964;42.606;23.588;2022-09-03T02:10:07;94487.00;;;31.22;40.13
1926;BME280;964;42.606;23.588;2022-09-03T02:12:35;94480.59;;;31.93;38.96
1926;BME280;964;42.606;23.588;2022-09-03T02:15:09;94478.78;;;31.84;39.62
1926;BME280;964;42.606;23.588;2022-09-03T02:17:37;94480.38;;;31.34;40.15
1926;BME280;964;42.606;23.588;2022-09-03T02:20:08;94476.31;;;30.98;40.57
1926;BME280;964;42.606;23.588;2022-09-03T02:22:36;94479.69;;;31.13;40.22
1926;BME280;964;42.606;23.588;2022-09-03T02:25:04;94474.72;;;30.45;41.52
1926;BME280;964;42.606;23.588;2022-09-03T02:27:31;94479.25;;;31.51;39.95
1926;BME280;964;42.606;23.588;2022-09-03T02:29:58;94483.88;;;30.62;41.35
1926;BME280;964;42.606;23.588;2022-09-03T02:32:27;94484.44;;;30.92;40.50
1926;BME280;964;42.606;23.588;2022-09-03T02:34:54;94484.13;;;30.85;40.50
1926;BME280;964;42.606;23.588;2022-09-03T02:37:21;94488.03;;;31.30;40.13
1926;BME280;964;42.606;23.588;2022-09-03T02:39:48;94501.13;;;31.46;39.58
1926;BME280;964;42.606;23.588;2022-09-03T02:42:16;94497.72;;;31.82;39.20
1926;BME280;964;42.606;23.588;2022-09-03T02:44:47;94496.66;;;32.11;39.16
1926;BME280;964;42.606;23.588;2022-09-03T02:47:14;94498.72;;;31.85;39.22
1926;BME280;964;42.606;23.588;2022-09-03T02:49:43;94503.91;;;32.08;39.07
1926;BME280;964;42.606;23.588;2022-09-03T02:52:11;94497.97;;;32.21;38.87
1926;BME280;964;42.606;23.588;2022-09-03T02:54:38;94496.03;;;32.27;38.67
1926;BME280;964;42.606;23.588;2022-09-03T02:57:06;94500.47;;;32.25;38.40
1926;BME280;964;42.606;23.588;2022-09-03T02:59:33;94504.09;;;31.42;39.79
1926;BME280;964;42.606;23.588;2022-09-03T03:02:00;94502.28;;;31.59;39.60
1926;BME280;964;42.606;23.588;2022-09-03T03:04:27;94495.53;;;31.92;38.94
1926;BME280;964;42.606;23.588;2022-09-03T03:06:56;94505.50;;;31.32;40.15
1926;BME280;964;42.606;23.588;2022-09-03T03:09:23;94506.41;;;31.81;39.15
1926;BME280;964;42.606;23.588;2022-09-03T03:11:49;94504.09;;;31.68;39.04
1926;BME280;964;42.606;23.588;2022-09-03T03:14:17;94503.56;;;31.38;39.74
1926;BME280;964;42.606;23.588;2022-09-03T03:16:44;94509.69;;;31.53;39.81
1926;BME280;964;42.606;23.588;2022-09-03T03:19:11;94512.03;;;32.03;38.68
1926;BME280;964;42.606;23.588;2022-09-03T03:21:38;94515.97;;;31.91;39.17
1926;BME280;964;42.606;23.588;2022-09-03T03:24:06;94510.31;;;31.69;39.48
1926;BME280;964;42.606;23.588;2022-09-03T03:26:33;94501.56;;;32.44;38.13
1926;BME280;964;42.606;23.588;2022-09-03T03:29:01;94504.09;;;32.05;38.36
1926;BME280;964;42.606;23.588;2022-09-03T03:31:30;94498.00;;;31.53;38.92
1926;BME280;964;42.606;23.588;2022-09-03T03:33:59;94495.69;;;31.51;38.93
1926;BME280;964;42.606;23.588;2022-09-03T03:36:28;94492.81;;;31.60;39.24
1926;BME280;964;42.606;23.588;2022-09-03T03:38:56;94488.44;;;30.97;39.68
1926;BME280;964;42.606;23.588;2022-09-03T03:41:26;94488.91;;;31.41;39.35
1926;BME280;964;42.606;23.588;2022-09-03T03:43:56;94493.75;;;31.26;39.27
1926;BME280;964;42.606;23.588;2022-09-03T03:46:24;94511.44;;;30.59;40.38
1926;BME280;964;42.606;23.588;2022-09-03T03:48:54;94492.03;;;31.29;39.31
1926;BME280;964;42.606;23.588;2022-09-03T03:51:20;94498.63;;;31.42;39.46
1926;BME280;964;42.606;23.588;2022-09-03T03:53:48;94491.28;;;31.28;39.20
1926;BME280;964;42.606;23.588;2022-09-03T03:56:14;94502.03;;;31.06;39.86
1926;BME280;964;42.606;23.588;2022-09-03T03:58:43;94499.94;;;31.21;39.13
1926;BME280;964;42.606;23.588;2022-09-03T04:01:12;94505.16;;;31.50;38.88
1926;BME280;964;42.606;23.588;2022-09-03T04:03:40;94491.63;;;32.04;37.76
1926;BME280;964;42.606;23.588;2022-09-03T04:06:07;94493.22;;;32.16;37.34
1926;BME280;964;42.606;23.588;2022-09-03T04:08:36;94507.69;;;31.85;38.31
1926;BME280;964;42.606;23.588;2022-09-03T04:11:04;94502.44;;;31.82;38.13
1926;BME280;964;42.606;23.588;2022-09-03T04:13:33;94503.72;;;31.86;38.36
1926;BME280;964;42.606;23.588;2022-09-03T04:16:03;94508.50;;;31.34;39.04
1926;BME280;964;42.606;23.588;2022-09-03T04:18:31;94502.00;;;31.57;38.44
1926;BME280;964;42.606;23.588;2022-09-03T04:20:59;94503.94;;;31.83;38.02
1926;BME280;964;42.606;23.588;2022-09-03T04:23:28;94514.13;;;31.77;38.29
1926;BME280;964;42.606;23.588;2022-09-03T04:25:55;94509.13;;;31.49;38.65
1926;BME280;964;42.606;23.588;2022-09-03T04:28:22;94522.59;;;31.47;38.75
1926;BME280;964;42.606;23.588;2022-09-03T04:30:48;94518.97;;;32.30;37.48
1926;BME280;964;42.606;23.588;2022-09-03T04:33:17;94507.88;;;32.07;37.40
1926;BME280;964;42.606;23.588;2022-09-03T04:35:44;94514.22;;;31.93;37.80
1926;BME280;964;42.606;23.588;2022-09-03T04:38:11;94515.00;;;32.31;37.06
1926;BME280;964;42.606;23.588;2022-09-03T04:40:37;94515.22;;;32.27;37.29
1926;BME280;964;42.606;23.588;2022-09-03T04:43:04;94516.81;;;32.50;37.01
1926;BME280;964;42.606;23.588;2022-09-03T04:45:31;94523.09;;;32.56;36.84
1926;BME280;964;42.606;23.588;2022-09-03T04:47:58;94514.84;;;33.16;36.26
1926;BME280;964;42.606;23.588;2022-09-03T04:50:28;94523.47;;;32.81;36.67
1926;BME280;964;42.606;23.588;2022-09-03T04:52:59;94524.69;;;32.74;36.87
1926;BME280;964;42.606;23.588;2022-09-03T04:55:26;94533.06;;;33.13;36.29
1926;BME280;964;42.606;23.588;2022-09-03T04:57:53;94536.84;;;32.62;37.01
1926;BME280;964;42.606;23.588;2022-09-03T05:00:20;94540.97;;;32.89;36.70
1926;BME280;964;42.606;23.588;2022-09-03T05:02:46;94546.22;;;32.44;37.26
1926;BME280;964;42.606;23.588;2022-09-03T05:05:16;94548.72;;;32.42;37.26
1926;BME280;964;42.606;23.588;2022-09-03T05:07:44;94558.34;;;32.69;37.29
1926;BME280;964;42.606;23.588;2022-09-03T05:10:12;94553.44;;;32.05;37.59
1926;BME280;964;42.606;23.588;2022-09-03T05:12:45;94553.22;;;32.45;37.38
1926;BME280;964;42.606;23.588;2022-09-03T05:15:11;94556.63;;;31.98;38.09
1926;BME280;964;42.606;23.588;2022-09-03T05:17:38;94560.06;;;32.24;37.46
1926;BME280;964;42.606;23.588;2022-09-03T05:20:06;94556.59;;;31.15;38.62
1926;BME280;964;42.606;23.588;2022-09-03T05:22:33;94560.47;;;31.03;39.34
1926;BME280;964;42.606;23.588;2022-09-03T05:25:01;94550.44;;;31.46;38.40
1926;BME280;964;42.606;23.588;2022-09-03T05:27:27;94552.75;;;31.79;38.57
1926;BME280;964;42.606;23.588;2022-09-03T05:29:54;94553.75;;;31.81;38.37
1926;BME280;964;42.606;23.588;2022-09-03T05:32:21;94562.28;;;31.57;38.16
1926;BME280;964;42.606;23.588;2022-09-03T05:34:49;94562.50;;;30.88;39.53
1926;BME280;964;42.606;23.588;2022-09-03T05:37:15;94568.53;;;31.12;39.48
1926;BME280;964;42.606;23.588;2022-09-03T05:39:42;94572.31;;;31.40;39.28
1926;BME280;964;42.606;23.588;2022-09-03T05:42:10;94577.97;;;30.91;39.23
1926;BME280;964;42.606;23.588;2022-09-03T05:44:39;94576.00;;;30.91;39.34
1926;BME280;964;42.606;23.588;2022-09-03T05:47:06;94580.59;;;31.00;39.67
1926;BME280;964;42.606;23.588;2022-09-03T05:49:33;94576.81;;;31.18;39.31
1926;BME280;964;42.606;23.588;2022-09-03T05:51:59;94586.75;;;30.75;39.93
1926;BME280;964;42.606;23.588;2022-09-03T05:54:27;94588.72;;;31.60;38.77
1926;BME280;964;42.606;23.588;2022-09-03T05:56:54;94591.09;;;30.87;39.50
1926;BME280;964;42.606;23.588;2022-09-03T05:59:22;94593.25;;;30.42;40.25
1926;BME280;964;42.606;23.588;2022-09-03T06:01:48;94599.78;;;30.30;40.51
1926;BME280;964;42.606;23.588;2022-09-03T06:04:15;94598.81;;;31.03;39.23
1926;BME280;964;42.606;23.588;2022-09-03T06:06:44;94599.81;;;31.26;38.87
1926;BME280;964;42.606;23.588;2022-09-03T06:09:12;94599.53;;;31.49;38.38
1926;BME280;964;42.606;23.588;2022-09-03T06:11:40;94603.09;;;31.81;38.17
1926;BME280;964;42.606;23.588;2022-09-03T06:14:08;94602.69;;;32.56;37.26
1926;BME280;964;42.606;23.588;2022-09-03T06:16:39;94600.19;;;32.22;37.63
1926;BME280;964;42.606;23.588;2022-09-03T06:19:07;94595.28;;;32.31;37.47
1926;BME280;964;42.606;23.588;2022-09-03T06:21:34;94598.81;;;32.06;37.62
1926;BME280;964;42.606;23.588;2022-09-03T06:24:02;94597.66;;;32.13;37.70
1926;BME280;964;42.606;23.588;2022-09-03T06:26:29;94598.03;;;32.31;36.82
1926;BME280;964;42.606;23.588;2022-09-03T06:28:56;94597.34;;;32.79;36.01
1926;BME280;964;42.606;23.588;2022-09-03T06:31:24;94594.69;;;32.58;36.57
1926;BME280;964;42.606;23.588;2022-09-03T06:33:53;94591.56;;;32.34;36.71
1926;BME280;964;42.606;23.588;2022-09-03T06:36:21;94592.28;;;32.72;36.38
1926;BME280;964;42.606;23.588;2022-09-03T06:38:52;94598.28;;;32.33;37.05
1926;BME280;964;42.606;23.588;2022-09-03T06:41:20;94598.56;;;31.73;37.91
1926;BME280;964;42.606;23.588;2022-09-03T06:43:50;94605.59;;;32.47;36.62
1926;BME280;964;42.606;23.588;2022-09-03T06:46:19;94604.94;;;32.21;36.37
1926;BME280;964;42.606;23.588;2022-09-03T06:48:46;94605.41;;;32.56;36.35
1926;BME280;964;42.606;23.588;2022-09-03T06:51:16;94609.66;;;32.57;36.37
1926;BME280;964;42.606;23.588;2022-09-03T06:53:44;94604.25;;;32.69;36.50
1926;BME280;964;42.606;23.588;2022-09-03T06:56:13;94607.88;;;32.49;36.94
1926;BME280;964;42.606;23.588;2022-09-03T06:58:43;94602.06;;;32.78;36.41
1926;BME280;964;42.606;23.588;2022-09-03T07:01:11;94594.75;;;33.23;35.16
1926;BME280;964;42.606;23.588;2022-09-03T07:03:40;94598.28;;;33.29;35.57
1926;BME280;964;42.606;23.588;2022-09-03T07:06:08;94593.16;;;33.87;35.20
1926;BME280;964;42.606;23.588;2022-09-03T07:08:37;94602.25;;;33.23;35.50
1926;BME280;964;42.606;23.588;2022-09-03T07:11:06;94606.28;;;32.37;36.62
1926;BME280;964;42.606;23.588;2022-09-03T07:13:34;94600.19;;;32.58;36.73
1926;BME280;964;42.606;23.588;2022-09-03T07:16:03;94591.56;;;33.52;35.42
1926;BME280;964;42.606;23.588;2022-09-03T07:18:31;94604.13;;;33.65;35.28
1926;BME280;964;42.606;23.588;2022-09-03T07:20:58;94601.63;;;33.78;35.04
1926;BME280;964;42.606;23.588;2022-09-03T07:23:26;94603.09;;;33.57;35.64
1926;BME280;964;42.606;23.588;2022-09-03T07:25:55;94605.16;;;33.95;34.50
1926;BME280;964;42.606;23.588;2022-09-03T07:28:23;94618.34;;;33.63;35.17
1926;BME280;964;42.606;23.588;2022-09-03T07:30:50;94614.41;;;34.36;34.55
1926;BME280;964;42.606;23.588;2022-09-03T07:33:17;94611.91;;;33.83;35.11
1926;BME280;964;42.606;23.588;2022-09-03T07:35:44;94617.25;;;33.27;35.48
1926;BME280;964;42.606;23.588;2022-09-03T07:38:16;94619.50;;;33.29;34.96
1926;BME280;964;42.606;23.588;2022-09-03T07:40:43;94618.16;;;34.11;34.80
1926;BME280;964;42.606;23.588;2022-09-03T07:43:11;94616.38;;;34.53;34.16
1926;BME280;964;42.606;23.588;2022-09-03T07:45:38;94622.63;;;34.03;34.26
1926;BME280;964;42.606;23.588;2022-09-03T07:48:05;94630.63;;;34.73;33.94
1926;BME280;964;42.606;23.588;2022-09-03T07:50:32;94638.09;;;33.62;34.67
1926;BME280;964;42.606;23.588;2022-09-03T07:53:06;94642.44;;;33.20;35.56
1926;BME280;964;42.606;23.588;2022-09-03T07:55:32;94644.88;;;33.66;34.71
1926;BME280;964;42.606;23.588;2022-09-03T07:57:59;94642.16;;;33.94;34.46
1926;BME280;964;42.606;23.588;2022-09-03T08:00:27;94630.38;;;34.55;33.66
1926;BME280;964;42.606;23.588;2022-09-03T08:02:57;94630.91;;;34.53;33.84
1926;BME280;964;42.606;23.588;2022-09-03T08:05:31;94625.84;;;34.85;33.66
1926;BME280;964;42.606;23.588;2022-09-03T08:07:58;94624.59;;;34.86;33.50
1926;BME280;964;42.606;23.588;2022-09-03T08:10:25;94631.63;;;34.81;33.87
1926;BME280;964;42.606;23.588;2022-09-03T08:12:54;94630.38;;;34.82;33.40
1926;BME280;964;42.606;23.588;2022-09-03T08:15:21;94622.91;;;35.40;32.97
1926;BME280;964;42.606;23.588;2022-09-03T08:17:49;94621.16;;;35.84;32.63
1926;BME280;964;42.606;23.588;2022-09-03T08:20:16;94624.53;;;36.01;32.47
1926;BME280;964;42.606;23.588;2022-09-03T08:22:43;94632.09;;;35.95;32.64
1926;BME280;964;42.606;23.588;2022-09-03T08:25:09;94632.59;;;35.99;31.67
1926;BME280;964;42.606;23.588;2022-09-03T08:27:36;94629.78;;;35.12;33.22
1926;BME280;964;42.606;23.588;2022-09-03T08:30:03;94631.03;;;35.11;33.47
1926;BME280;964;42.606;23.588;2022-09-03T08:32:36;94641.41;;;34.71;33.55
1926;BME280;964;42.606;23.588;2022-09-03T08:35:06;94636.16;;;34.45;34.29
1926;BME280;964;42.606;23.588;2022-09-03T08:37:33;94637.19;;;34.20;34.32
1926;BME280;964;42.606;23.588;2022-09-03T08:40:00;94627.78;;;35.07;33.12
1926;BME280;964;42.606;23.588;2022-09-03T08:42:45;94629.06;;;35.00;33.66
1926;BME280;964;42.606;23.588;2022-09-03T08:45:16;94629.06;;;35.00;33.11
1926;BME280;964;42.606;23.588;2022-09-03T08:47:47;94629.44;;;35.37;32.92
1926;BME280;964;42.606;23.588;2022-09-03T08:50:22;94629.50;;;35.73;32.51
1926;BME280;964;42.606;23.588;2022-09-03T08:52:52;94623.72;;;35.71;32.24
1926;BME280;964;42.606;23.588;2022-09-03T08:55:26;94623.50;;;35.22;32.48
1926;BME280;964;42.606;23.588;2022-09-03T08:57:59;94631.78;;;35.69;32.38
1926;BME280;964;42.606;23.588;2022-09-03T09:00:38;94619.91;;;36.45;31.77
1926;BME280;964;42.606;23.588;2022-09-03T09:03:22;94619.38;;;36.22;31.99
1926;BME280;964;42.606;23.588;2022-09-03T09:05:59;94617.44;;;37.57;30.19
1926;BME280;964;42.606;23.588;2022-09-03T09:08:35;94632.72;;;36.96;31.00
1926;BME280;964;42.606;23.588;2022-09-03T09:11:09;94620.94;;;37.76;29.88
1926;BME280;964;42.606;23.588;2022-09-03T09:13:42;94635.53;;;37.58;29.52
1926;BME280;964;42.606;23.588;2022-09-03T09:16:14;94627.50;;;38.55;28.46
1926;BME280;964;42.606;23.588;2022-09-03T09:18:54;94614.44;;;38.95;28.16
1926;BME280;964;42.606;23.588;2022-09-03T09:21:29;94607.63;;;38.96;28.93
1926;BME280;964;42.606;23.588;2022-09-03T09:24:01;94602.16;;;39.64;28.26
1926;BME280;964;42.606;23.588;2022-09-03T09:26:30;94610.16;;;38.68;28.73
1926;BME280;964;42.606;23.588;2022-09-03T09:29:01;94600.09;;;39.44;28.04
1926;BME280;964;42.606;23.588;2022-09-03T09:31:29;94606.50;;;39.52;28.08
1926;BME280;964;42.606;23.588;2022-09-03T09:34:01;94599.13;;;40.71;26.26
1926;BME280;964;42.606;23.588;2022-09-03T09:36:45;94606.41;;;40.33;26.88
1926;BME280;964;42.606;23.588;2022-09-03T09:39:13;94610.59;;;40.26;27.67
1926;BME280;964;42.606;23.588;2022-09-03T09:41:41;94615.25;;;38.64;28.43
1926;BME280;964;42.606;23.588;2022-09-03T09:44:18;94611.06;;;40.38;27.42
1926;BME280;964;42.606;23.588;2022-09-03T09:46:45;94613.25;;;39.04;28.17
1926;BME280;964;42.606;23.588;2022-09-03T09:49:29;94612.91;;;38.81;28.98
1926;BME280;964;42.606;23.588;2022-09-03T09:52:04;94616.13;;;38.72;28.68
1926;BME280;964;42.606;23.588;2022-09-03T09:54:32;94613.13;;;38.70;28.85
1926;BME280;964;42.606;23.588;2022-09-03T09:57:00;94623.56;;;38.51;28.88
1926;BME280;964;42.606;23.588;2022-09-03T09:59:28;94621.34;;;38.75;28.93
1926;BME280;964;42.606;23.588;2022-09-03T10:02:06;94619.09;;;39.53;28.28
1926;BME280;964;42.606;23.588;2022-09-03T10:04:34;94626.06;;;39.80;27.59
1926;BME280;964;42.606;23.588;2022-09-03T10:07:04;94630.03;;;40.47;27.13
1926;BME280;964;42.606;23.588;2022-09-03T10:09:33;94625.31;;;40.13;26.87
1926;BME280;964;42.606;23.588;2022-09-03T10:12:08;94631.41;;;39.78;27.68
1926;BME280;964;42.606;23.588;2022-09-03T10:14:43;94623.63;;;39.97;27.72
1926;BME280;964;42.606;23.588;2022-09-03T10:17:17;94614.38;;;41.13;26.44
1926;BME280;964;42.606;23.588;2022-09-03T10:20:01;94610.44;;;40.52;26.86
1926;BME280;964;42.606;23.588;2022-09-03T10:22:53;94610.78;;;41.34;25.65
1926;BME280;964;42.606;23.588;2022-09-03T10:25:24;94614.41;;;40.57;26.49
1926;BME280;964;42.606;23.588;2022-09-03T10:27:52;94620.50;;;39.80;26.97
1926;BME280;964;42.606;23.588;2022-09-03T10:30:19;94618.28;;;39.65;27.24
1926;BME280;964;42.606;23.588;2022-09-03T10:32:55;94618.41;;;39.73;27.60
1926;BME280;964;42.606;23.588;2022-09-03T10:35:28;94609.63;;;40.03;27.31
1926;BME280;964;42.606;23.588;2022-09-03T10:38:05;94616.84;;;41.25;26.06
1926;BME280;964;42.606;23.588;2022-09-03T10:40:38;94616.44;;;41.49;26.39
1926;BME280;964;42.606;23.588;2022-09-03T10:43:22;94604.34;;;40.54;26.47
1926;BME280;964;42.606;23.588;2022-09-03T10:45:59;94604.03;;;40.37;26.98
1926;BME280;964;42.606;23.588;2022-09-03T10:48:47;94615.53;;;39.99;26.58
1926;BME280;964;42.606;23.588;2022-09-03T10:51:22;94607.56;;;40.58;26.52
1926;BME280;964;42.606;23.588;2022-09-03T10:54:05;94615.25;;;40.52;26.81
1926;BME280;964;42.606;23.588;2022-09-03T10:56:43;94600.94;;;41.33;25.91
1926;BME280;964;42.606;23.588;2022-09-03T10:59:27;94605.50;;;41.51;25.65
1926;BME280;964;42.606;23.588;2022-09-03T11:02:09;94611.44;;;41.55;26.36
1926;BME280;964;42.606;23.588;2022-09-03T11:04:45;94608.41;;;41.81;25.90
1926;BME280;964;42.606;23.588;2022-09-03T11:07:19;94611.84;;;40.04;26.89
1926;BME280;964;42.606;23.588;2022-09-03T11:09:51;94619.47;;;39.57;27.77
1926;BME280;964;42.606;23.588;2022-09-03T11:12:24;94627.19;;;38.59;29.00
1926;BME280;964;42.606;23.588;2022-09-03T11:14:56;94616.84;;;40.19;27.12
1926;BME280;964;42.606;23.588;2022-09-03T11:17:30;94610.50;;;42.11;25.29
1926;BME280;964;42.606;23.588;2022-09-03T11:20:07;94613.13;;;42.47;24.73
1926;BME280;964;42.606;23.588;2022-09-03T11:22:38;94605.31;;;42.61;24.55
1926;BME280;964;42.606;23.588;2022-09-03T11:25:10;94607.38;;;41.56;25.00
1926;BME280;964;42.606;23.588;2022-09-03T11:27:51;94606.25;;;42.48;24.10
1926;BME280;964;42.606;23.588;2022-09-03T11:30:24;94602.31;;;42.89;23.42
1926;BME280;964;42.606;23.588;2022-09-03T11:32:57;94612.75;;;41.54;25.92
1926;BME280;964;42.606;23.588;2022-09-03T11:35:28;94611.81;;;41.16;25.63
1926;BME280;964;42.606;23.588;2022-09-03T11:38:04;94607.31;;;41.99;24.67
1926;BME280;964;42.606;23.588;2022-09-03T11:40:34;94606.81;;;42.31;25.00
1926;BME280;964;42.606;23.588;2022-09-03T11:43:06;94615.31;;;42.11;24.41
1926;BME280;964;42.606;23.588;2022-09-03T11:45:35;94619.59;;;39.98;26.70
1926;BME280;964;42.606;23.588;2022-09-03T11:48:16;94616.34;;;40.07;26.75
1926;BME280;964;42.606;23.588;2022-09-03T11:50:51;94610.63;;;40.75;26.35
1926;BME280;964;42.606;23.588;2022-09-03T11:53:24;94610.78;;;40.49;26.65
1926;BME280;964;42.606;23.588;2022-09-03T11:55:55;94610.28;;;41.43;25.61
1926;BME280;964;42.606;23.588;2022-09-03T11:58:25;94607.13;;;42.13;23.87
1926;BME280;964;42.606;23.588;2022-09-03T12:00:55;94606.63;;;42.44;24.91
1926;BME280;964;42.606;23.588;2022-09-03T12:03:25;94592.25;;;43.09;23.93
1926;BME280;964;42.606;23.588;2022-09-03T12:06:07;94605.31;;;42.91;23.87
1926;BME280;964;42.606;23.588;2022-09-03T12:08:59;94597.09;;;42.93;24.23
1926;BME280;964;42.606;23.588;2022-09-03T12:11:40;94591.50;;;43.00;23.69
1926;BME280;964;42.606;23.588;2022-09-03T12:14:18;94588.09;;;43.25;23.83
1926;BME280;964;42.606;23.588;2022-09-03T12:16:56;94582.25;;;42.60;23.79
1926;BME280;964;42.606;23.588;2022-09-03T12:19:30;94580.59;;;42.87;23.95
1926;BME280;964;42.606;23.588;2022-09-03T12:21:58;94585.09;;;43.38;22.62
1926;BME280;964;42.606;23.588;2022-09-03T12:24:28;94575.03;;;43.82;22.35
1926;BME280;964;42.606;23.588;2022-09-03T12:27:01;94580.78;;;43.44;22.64
1926;BME280;964;42.606;23.588;2022-09-03T12:29:29;94570.91;;;44.16;22.14
1926;BME280;964;42.606;23.588;2022-09-03T12:32:05;94563.00;;;45.67;21.34
1926;BME280;964;42.606;23.588;2022-09-03T12:34:32;94551.50;;;45.90;21.34
1926;BME280;964;42.606;23.588;2022-09-03T12:36:59;94567.63;;;44.52;21.80
1926;BME280;964;42.606;23.588;2022-09-03T12:39:27;94565.22;;;44.90;21.22
1926;BME280;964;42.606;23.588;2022-09-03T12:42:00;94558.78;;;43.88;22.49
1926;BME280;964;42.606;23.588;2022-09-03T12:44:30;94564.47;;;44.72;21.64
1926;BME280;964;42.606;23.588;2022-09-03T12:47:01;94559.66;;;44.48;22.31
1926;BME280;964;42.606;23.588;2022-09-03T12:49:34;94560.47;;;45.88;20.79
1926;BME280;964;42.606;23.588;2022-09-03T12:52:07;94561.09;;;45.69;21.57
1926;BME280;964;42.606;23.588;2022-09-03T12:54:42;94560.72;;;44.53;21.54
1926;BME280;964;42.606;23.588;2022-09-03T12:57:19;94566.09;;;43.76;22.49
1926;BME280;964;42.606;23.588;2022-09-03T12:59:47;94556.16;;;44.65;21.50
1926;BME280;964;42.606;23.588;2022-09-03T13:02:20;94551.66;;;45.04;21.35
1926;BME280;964;42.606;23.588;2022-09-03T13:04:48;94546.69;;;44.60;21.84
1926;BME280;964;42.606;23.588;2022-09-03T13:07:22;94556.22;;;44.74;21.77
1926;BME280;964;42.606;23.588;2022-09-03T13:09:49;94545.78;;;43.83;21.99
1926;BME280;964;42.606;23.588;2022-09-03T13:12:23;94546.69;;;44.95;21.01
1926;BME280;964;42.606;23.588;2022-09-03T13:14:54;94543.44;;;45.06;21.07
1926;BME280;964;42.606;23.588;2022-09-03T13:17:42;94544.31;;;44.74;21.63
1926;BME280;964;42.606;23.588;2022-09-03T13:20:28;94529.56;;;45.42;20.46
1926;BME280;964;42.606;23.588;2022-09-03T13:23:11;94531.91;;;44.25;21.12
1926;BME280;964;42.606;23.588;2022-09-03T13:25:49;94528.44;;;44.94;21.44
1926;BME280;964;42.606;23.588;2022-09-03T13:28:30;94530.66;;;44.78;21.00
1926;BME280;964;42.606;23.588;2022-09-03T13:31:09;94528.81;;;44.56;21.26
1926;BME280;964;42.606;23.588;2022-09-03T13:33:49;94533.00;;;44.47;21.63
1926;BME280;964;42.606;23.588;2022-09-03T13:36:20;94521.47;;;45.46;20.74
1926;BME280;964;42.606;23.588;2022-09-03T13:38:54;94524.00;;;45.08;20.65
1926;BME280;964;42.606;23.588;2022-09-03T13:41:33;94527.19;;;43.78;22.01
1926;BME280;964;42.606;23.588;2022-09-03T13:44:06;94530.41;;;43.67;21.89
1926;BME280;964;42.606;23.588;2022-09-03T13:46:42;94527.56;;;43.82;21.68
1926;BME280;964;42.606;23.588;2022-09-03T13:49:20;94528.50;;;44.27;21.46
1926;BME280;964;42.606;23.588;2022-09-03T13:52:14;94520.91;;;43.70;21.93